フランクフルト の空港の天気 - METARとTAF

フランクフルト国際空港 ( EDDF / FRA ) - ドイツ フランクフルト・アム・マイン
飛行場実況気象(Metar)
観測時間01/21 18:50 CET (01/21 17:50 UTC)
風向・風速南南西 3m/s
視程10km以上
天気現象
少しの雲 雲底高度 1220m
全天の8割程度の雲 雲底高度 7620m
気温2℃
湿度87%
気圧1017hPa
METAREDDF 211750Z 20005KT 9999 FEW040 BKN250 02/M00 Q1017 NOSIG
過去の天気等 Google飛行場航空写真 Wunderground天気予報

過去48時間のMETAR

飛行場予報(TAF)
発表時間: 1/21 18:00 CET (1/21 17:00 UTC)
予報対象時間: 21日19時 CET ~ 23日1時 CET
風向・風速南 2m/s
視程10km以上
全天の4割程度の雲 雲底高度 910m
22日0時 CET ~ 22日2時 CET に徐々に
視程4,000m
天気現象弱い雪
全天の8割程度の雲 雲底高度 370m
22日2時 CET ~ 22日6時 CET に 確率 40% で一時的に
視程1,200m
天気現象
全天の8割程度の雲 雲底高度 120m
22日6時 CET ~ 22日8時 CET に 確率 40% で一時的に
視程1,200m
天気現象弱い氷雨 散在した霧
全天の8割程度の雲 雲底高度 120m
22日6時 CET ~ 22日9時 CET に徐々に
視程2,000m
天気現象弱い雨 もや
全天の8割程度の雲 雲底高度 180m
22日8時 CET ~ 22日13時 CET に 確率 40% で一時的に
視程1,000m
天気現象散在した霧
全天の8割程度の雲 雲底高度 90m
22日14時 CET ~ 22日18時 CET に徐々に
風向・風速西 3m/s
視程6,000m
全天の8割程度の雲 雲底高度 460m
TAF EDDF 211700Z 2118/2224 17004KT 9999 SCT030
BECMG 2123/2201 4000 -SN BKN012
PROB40 TEMPO 2201/2205 1200 SN BKN004
PROB40 TEMPO 2205/2207 1200 -FZRA BCFG BKN004
BECMG 2205/2208 2000 -RA BR BKN006
PROB40 TEMPO 2207/2212 1000 BCFG BKN003
BECMG 2213/2217 27006KT 6000 BKN015